Portada
METAR-TAF:

METAR-TAF

Aeroports :

Aeroport Internacional Maiquetía Simón Bolívar

Caracas, Veneçuela

latitud: 10-36N, longitud: 066-59W, altitud: 43 m

Observació

L'informe es va fer fa 54 minuts, a les 05:00 UTC
Vent 2 kt del Oest
Temperatura 25°C
Humitat 89%
Pressió 1014 hPa
Visibilitat 10 km o més
Escasses núvols a una alçada de 1600 ft

METAR: SVMI 150500Z 27002KT 9999 25/23 FEW016 Q1014

Hora: 01:54 (05:54 UTC)

Pronòstic

L'informe es va fer fa 1 hora i 54 minuts, a les 04:00 UTC
Pronòstic vàlid del 15 a les 06 UTC al 16 a les 06 UTC
Vent 3 kt del Oest
Visibilitat 10 km o més
Núvols disperses a una alçada de 1600 ft
Temporalment
l' 15 a les 06 UTC al 15 a les 10 UTC
Vent 5 kt del Est
Visibilitat 10 km o més
Núvols disperses a una alçada de 1600 ft

TAF: SVMI 150400Z 1506/1606 27003KT 9999 SCT016 TX31/19Z TN22/08Z TEMPO 1506/1510 09005KT 9999 SCT016

Observacions i pronòstics meteorològics de més de 4000 aeroports (METAR i TAF).

Les estacions disponibles són els punts grocs i vermells al mapa.

Posi el ratolí al punt desitjat per veure el nom de l'estació.

Feu clic per veure les observacions i els pronòstics meteorològics.

Per canviar el mapa: feu clic els botons verds amb una creu de color negre per apropar; al botó verd amb un guió per allunyar la imatge; o en les fletxes verdes per a mapes adjacents.


METAR-TAF: